createdAt,value
2022-11-05T00:01:03.248Z,8.30
2022-11-05T00:03:29.626Z,8.32
2022-11-05T00:05:55.981Z,8.31
2022-11-05T00:08:22.289Z,8.32
2022-11-05T00:10:50.013Z,8.31
2022-11-05T00:13:16.394Z,8.30
2022-11-05T00:15:42.706Z,8.26
2022-11-05T00:18:08.997Z,8.23
2022-11-05T00:20:35.302Z,8.20
2022-11-05T00:23:01.612Z,8.20
2022-11-05T00:25:27.974Z,8.13
2022-11-05T00:27:59.873Z,8.10
2022-11-05T00:30:26.589Z,8.08
2022-11-05T00:32:53.250Z,8.05
2022-11-05T00:35:20.804Z,8.03
2022-11-05T00:37:50.419Z,7.99
2022-11-05T00:40:17.310Z,7.98
2022-11-05T00:42:43.741Z,7.96
2022-11-05T00:45:11.717Z,7.97
2022-11-05T00:47:38.276Z,7.95
2022-11-05T00:50:04.987Z,7.91
2022-11-05T00:52:31.259Z,7.89
2022-11-05T00:54:57.567Z,7.88
2022-11-05T00:57:23.863Z,7.87
2022-11-05T00:59:50.156Z,7.88
2022-11-05T01:02:17.960Z,7.86
2022-11-05T01:04:44.486Z,7.89
2022-11-05T01:07:10.750Z,7.85
2022-11-05T01:09:37.146Z,7.82
2022-11-05T01:12:03.637Z,7.80
2022-11-05T01:14:29.913Z,7.79
2022-11-05T01:16:56.228Z,7.77
2022-11-05T01:19:23.831Z,7.70
2022-11-05T01:21:50.136Z,7.66
2022-11-05T01:24:16.444Z,7.64
2022-11-05T01:26:42.757Z,7.58
2022-11-05T01:29:10.858Z,7.55
2022-11-05T01:31:37.190Z,7.51
2022-11-05T01:34:03.475Z,7.45
2022-11-05T01:36:31.693Z,7.40
2022-11-05T01:38:57.988Z,7.36
2022-11-05T01:41:24.580Z,7.31
2022-11-05T01:43:53.593Z,7.23
2022-11-05T01:46:22.640Z,7.18
2022-11-05T01:48:51.795Z,7.10
2022-11-05T01:51:21.068Z,7.05
2022-11-05T01:53:50.640Z,6.94
2022-11-05T01:56:18.378Z,6.84
2022-11-05T01:58:46.444Z,6.81
2022-11-05T02:01:12.710Z,6.71
2022-11-05T02:03:39.315Z,6.64
2022-11-05T02:06:06.277Z,6.59
2022-11-05T02:08:36.763Z,6.57
2022-11-05T02:11:05.294Z,6.51
2022-11-05T02:13:31.586Z,6.45
2022-11-05T02:16:01.900Z,6.44
2022-11-05T02:18:35.215Z,6.37
2022-11-05T02:21:14.117Z,6.35
2022-11-05T02:23:53.478Z,6.31
2022-11-05T02:26:40.943Z,6.31
2022-11-05T02:29:27.522Z,6.31
2022-11-05T02:32:00.030Z,6.35
2022-11-05T02:34:29.756Z,6.38
2022-11-05T02:36:58.014Z,6.39
2022-11-05T02:39:33.193Z,6.39
2022-11-05T02:42:05.690Z,6.38
2022-11-05T02:44:38.431Z,6.34
2022-11-05T02:47:07.754Z,6.26
2022-11-05T02:49:39.607Z,6.16
2022-11-05T02:52:08.404Z,6.08
2022-11-05T02:54:36.397Z,6.05
2022-11-05T02:57:03.644Z,6.02
2022-11-05T02:59:30.287Z,5.94
2022-11-05T03:01:57.313Z,5.93
2022-11-05T03:04:25.438Z,5.88
2022-11-05T03:07:00.971Z,5.82
2022-11-05T03:09:37.656Z,5.84
2022-11-05T03:12:10.747Z,5.78
2022-11-05T03:14:40.758Z,5.77
2022-11-05T03:17:09.947Z,5.76
2022-11-05T03:19:39.906Z,5.76
2022-11-05T03:22:09.713Z,5.72
2022-11-05T03:24:39.009Z,5.71
2022-11-05T03:27:07.147Z,5.72
2022-11-05T03:29:41.114Z,5.72
2022-11-05T03:32:07.917Z,5.63
2022-11-05T03:34:41.585Z,5.63
2022-11-05T03:37:09.830Z,5.66
2022-11-05T03:39:38.605Z,5.65
2022-11-05T03:42:06.020Z,5.64
2022-11-05T03:44:34.242Z,5.64
2022-11-05T03:47:03.431Z,5.63
2022-11-05T03:49:33.930Z,5.66
2022-11-05T03:52:04.120Z,5.74
2022-11-05T03:54:32.649Z,5.79
2022-11-05T03:57:02.006Z,5.82
2022-11-05T03:59:29.597Z,5.84
2022-11-05T04:01:56.439Z,5.86
2022-11-05T04:04:22.839Z,5.85
2022-11-05T04:06:49.120Z,5.88
2022-11-05T04:09:15.517Z,5.87
2022-11-05T04:11:43.130Z,5.82
2022-11-05T04:14:09.439Z,5.80
2022-11-05T04:16:35.732Z,5.75
2022-11-05T04:19:02.151Z,5.72
2022-11-05T04:21:28.405Z,5.64
2022-11-05T04:23:55.046Z,5.64
2022-11-05T04:26:21.359Z,5.57
2022-11-05T04:28:49.005Z,5.56
2022-11-05T04:31:15.287Z,5.59
2022-11-05T04:33:41.576Z,5.53
2022-11-05T04:36:08.074Z,5.54
2022-11-05T04:38:34.359Z,5.56
2022-11-05T04:41:12.219Z,5.57
2022-11-05T04:43:38.489Z,5.57
2022-11-05T04:46:06.210Z,5.57
2022-11-05T04:48:32.496Z,5.58
2022-11-05T04:50:58.787Z,5.55
2022-11-05T04:53:25.081Z,5.48
2022-11-05T04:55:51.376Z,5.38
2022-11-05T04:58:17.829Z,5.33
2022-11-05T05:00:44.137Z,5.28
2022-11-05T05:03:12.138Z,5.30
2022-11-05T05:05:38.733Z,5.27
2022-11-05T05:08:05.299Z,5.24
2022-11-05T05:10:31.693Z,5.22
2022-11-05T05:12:57.983Z,5.18
2022-11-05T05:15:24.619Z,5.11
2022-11-05T05:17:51.311Z,5.07
2022-11-05T05:20:19.492Z,5.04
2022-11-05T05:22:50.866Z,5.01
2022-11-05T05:25:17.155Z,4.98
2022-11-05T05:27:43.446Z,4.96
2022-11-05T05:30:10.368Z,4.97
2022-11-05T05:32:36.687Z,4.99
2022-11-05T05:35:03.063Z,4.99
2022-11-05T05:37:30.669Z,5.01
2022-11-05T05:39:56.954Z,4.99
2022-11-05T05:42:23.237Z,5.02
2022-11-05T05:44:49.524Z,5.04
2022-11-05T05:47:15.824Z,5.06
2022-11-05T05:49:42.094Z,5.03
2022-11-05T05:52:08.376Z,5.01
2022-11-05T05:54:41.313Z,5.04
2022-11-05T05:57:08.904Z,5.04
2022-11-05T05:59:35.206Z,5.05
2022-11-05T06:02:01.532Z,5.06
2022-11-05T06:04:27.925Z,5.09
2022-11-05T06:06:54.229Z,5.13
2022-11-05T06:09:20.535Z,5.17
2022-11-05T06:11:48.193Z,5.20
2022-11-05T06:14:14.462Z,5.20
2022-11-05T06:16:40.755Z,5.20
2022-11-05T06:19:07.583Z,5.21
2022-11-05T06:21:34.259Z,5.21
2022-11-05T06:24:01.017Z,5.19
2022-11-05T06:26:27.412Z,5.17
2022-11-05T06:28:55.019Z,5.13
2022-11-05T06:31:22.234Z,5.12
2022-11-05T06:33:48.545Z,5.13
2022-11-05T06:36:15.507Z,5.14
2022-11-05T06:38:41.836Z,5.10
2022-11-05T06:41:10.472Z,5.11
2022-11-05T06:43:37.475Z,5.13
2022-11-05T06:46:05.282Z,5.17
2022-11-05T06:48:31.794Z,5.17
2022-11-05T06:50:58.079Z,5.17
2022-11-05T06:53:25.311Z,5.18
2022-11-05T06:55:51.623Z,5.21
2022-11-05T06:58:17.915Z,5.23
2022-11-05T07:00:44.299Z,5.26
2022-11-05T07:03:12.869Z,5.28
2022-11-05T07:05:41.797Z,5.30
2022-11-05T07:08:08.201Z,5.31
2022-11-05T07:10:34.603Z,5.35
2022-11-05T07:13:05.163Z,5.37
2022-11-05T07:15:34.249Z,5.40
2022-11-05T07:18:01.056Z,5.45
2022-11-05T07:20:33.470Z,5.46
2022-11-05T07:23:01.178Z,5.51
2022-11-05T07:25:27.484Z,5.56
2022-11-05T07:27:53.733Z,5.59
2022-11-05T07:30:20.050Z,5.63
2022-11-05T07:32:46.315Z,5.66
2022-11-05T07:35:12.617Z,5.70
2022-11-05T07:37:43.587Z,5.74
2022-11-05T07:40:10.232Z,5.79
2022-11-05T07:42:36.540Z,5.82
2022-11-05T07:45:02.944Z,5.87
2022-11-05T07:47:29.242Z,5.90
2022-11-05T07:49:55.514Z,5.94
2022-11-05T07:52:21.816Z,5.97
2022-11-05T07:54:49.422Z,6.03
2022-11-05T07:57:15.704Z,6.05
2022-11-05T07:59:42.001Z,6.09
2022-11-05T08:02:09.689Z,6.15
2022-11-05T08:04:36.100Z,6.21
2022-11-05T08:07:02.405Z,6.24
2022-11-05T08:09:28.690Z,6.31
2022-11-05T08:12:01.448Z,6.36
2022-11-05T08:14:29.085Z,6.40
2022-11-05T08:16:56.903Z,6.46
2022-11-05T08:19:23.172Z,6.55
2022-11-05T08:21:49.479Z,6.60
2022-11-05T08:24:15.775Z,6.65
2022-11-05T08:26:42.114Z,6.72
2022-11-05T08:29:09.763Z,6.78
2022-11-05T08:31:36.047Z,6.84
2022-11-05T08:34:02.895Z,6.89
2022-11-05T08:36:29.249Z,6.97
2022-11-05T08:38:55.680Z,7.02
2022-11-05T08:41:21.963Z,7.09
2022-11-05T08:43:48.268Z,7.17
2022-11-05T08:46:15.915Z,7.23
2022-11-05T08:48:42.188Z,7.29
2022-11-05T08:51:08.484Z,7.35
2022-11-05T08:53:34.768Z,7.41
2022-11-05T08:56:01.069Z,7.50
2022-11-05T08:58:27.363Z,7.56
2022-11-05T09:00:53.696Z,7.64
2022-11-05T09:03:21.332Z,7.69
2022-11-05T09:05:47.629Z,7.76
2022-11-05T09:08:15.156Z,7.84
2022-11-05T09:10:41.775Z,7.90
2022-11-05T09:13:13.073Z,7.96
2022-11-05T09:15:43.140Z,8.02
2022-11-05T09:18:11.504Z,8.11
2022-11-05T09:20:39.139Z,8.19
2022-11-05T09:23:05.560Z,8.28
2022-11-05T09:25:32.090Z,8.35
2022-11-05T09:28:05.662Z,8.44
2022-11-05T09:30:31.949Z,8.54
2022-11-05T09:32:58.248Z,8.63
2022-11-05T09:35:24.662Z,8.75
2022-11-05T09:37:55.553Z,8.83
2022-11-05T09:40:25.149Z,8.85
2022-11-05T09:42:52.418Z,8.86
2022-11-05T09:45:20.103Z,8.89
2022-11-05T09:47:48.742Z,8.92
2022-11-05T09:50:16.457Z,8.97
2022-11-05T09:52:42.881Z,9.01
2022-11-05T09:55:17.928Z,9.03
2022-11-05T09:57:45.969Z,9.09
2022-11-05T10:00:13.680Z,9.19
2022-11-05T10:02:45.928Z,9.27
2022-11-05T10:05:13.109Z,9.40
2022-11-05T10:07:42.972Z,9.51
2022-11-05T10:10:17.641Z,9.59
2022-11-05T10:12:47.988Z,9.68
2022-11-05T10:15:16.554Z,9.76
2022-11-05T10:17:46.348Z,9.82
2022-11-05T10:20:17.358Z,9.86
2022-11-05T10:22:49.160Z,9.97
2022-11-05T10:25:17.940Z,9.97
2022-11-05T10:27:47.733Z,9.92
2022-11-05T10:30:14.086Z,9.88
2022-11-05T10:32:42.500Z,9.83
2022-11-05T10:35:11.970Z,9.82
2022-11-05T10:37:40.876Z,9.79
2022-11-05T10:40:13.914Z,9.79
2022-11-05T10:42:46.664Z,9.84
2022-11-05T10:45:18.411Z,9.83
2022-11-05T10:47:49.789Z,9.83
2022-11-05T10:50:17.199Z,9.84
2022-11-05T10:52:52.733Z,9.88
2022-11-05T10:55:21.530Z,9.90
2022-11-05T10:57:48.133Z,9.91
2022-11-05T11:00:24.302Z,9.93
2022-11-05T11:02:51.646Z,9.95
2022-11-05T11:05:20.027Z,10.00
2022-11-05T11:07:52.836Z,9.99
2022-11-05T11:10:20.669Z,10.04
2022-11-05T11:12:47.247Z,10.02
2022-11-05T11:15:14.942Z,10.00
2022-11-05T11:17:42.583Z,10.05
2022-11-05T11:20:17.956Z,10.06
2022-11-05T11:22:55.964Z,10.06
2022-11-05T11:25:23.783Z,10.09
2022-11-05T11:27:50.495Z,10.12
2022-11-05T11:30:18.202Z,10.16
2022-11-05T11:32:46.730Z,10.18
2022-11-05T11:35:20.048Z,10.23
2022-11-05T11:37:46.619Z,10.25
2022-11-05T11:40:15.448Z,10.28
2022-11-05T11:42:45.175Z,10.26
2022-11-05T11:45:15.551Z,10.27
2022-11-05T11:47:42.930Z,10.32
2022-11-05T11:50:30.675Z,10.33
2022-11-05T11:53:15.799Z,10.33
2022-11-05T11:55:56.058Z,10.37
2022-11-05T11:58:22.812Z,10.43
2022-11-05T12:00:51.763Z,10.51
2022-11-05T12:03:23.385Z,10.55
2022-11-05T12:05:53.195Z,10.63
2022-11-05T12:08:28.754Z,10.69
2022-11-05T12:10:58.592Z,10.77
2022-11-05T12:13:32.404Z,10.81
2022-11-05T12:16:05.006Z,10.85
2022-11-05T12:18:35.127Z,10.95
2022-11-05T12:21:05.989Z,11.10
2022-11-05T12:23:52.991Z,11.26
2022-11-05T12:26:24.531Z,11.38
2022-11-05T12:29:17.751Z,11.44
2022-11-05T12:31:48.111Z,11.46
2022-11-05T12:34:25.260Z,11.46
2022-11-05T12:37:02.295Z,11.45
2022-11-05T12:39:37.383Z,11.47
2022-11-05T12:42:08.024Z,11.46
2022-11-05T12:44:41.810Z,11.47
2022-11-05T12:47:16.188Z,11.45
2022-11-05T12:49:47.405Z,11.44
2022-11-05T12:52:26.539Z,11.41
2022-11-05T12:55:01.223Z,11.44
2022-11-05T12:57:29.526Z,11.42
2022-11-05T12:59:58.493Z,11.42
2022-11-05T13:02:28.959Z,11.39
2022-11-05T13:04:59.011Z,11.35
2022-11-05T13:07:27.807Z,11.35
2022-11-05T13:09:57.127Z,11.36
2022-11-05T13:12:26.379Z,11.35
2022-11-05T13:14:54.938Z,11.35
2022-11-05T13:17:23.271Z,11.35
2022-11-05T13:20:03.399Z,11.33
2022-11-05T13:22:33.131Z,11.32
2022-11-05T13:25:04.332Z,11.33
2022-11-05T13:27:51.280Z,11.35
2022-11-05T13:30:21.867Z,11.34
2022-11-05T13:32:51.729Z,11.35
2022-11-05T13:35:22.305Z,11.33
2022-11-05T13:37:51.751Z,11.31
2022-11-05T13:40:21.355Z,11.28
2022-11-05T13:43:05.534Z,11.27
2022-11-05T13:45:46.695Z,11.25
2022-11-05T13:48:31.207Z,11.25
2022-11-05T13:51:03.793Z,11.22
2022-11-05T13:53:44.484Z,11.21
2022-11-05T13:56:20.407Z,11.20
2022-11-05T13:58:55.333Z,11.20
2022-11-05T14:01:29.566Z,11.20
2022-11-05T14:03:57.371Z,11.20
2022-11-05T14:06:25.027Z,11.17
2022-11-05T14:08:51.588Z,11.15
2022-11-05T14:11:21.078Z,11.12
2022-11-05T14:13:50.636Z,11.10
2022-11-05T14:16:18.376Z,11.11
2022-11-05T14:18:46.121Z,11.08
2022-11-05T14:21:44.204Z,11.07
2022-11-05T14:24:27.537Z,11.06
2022-11-05T14:27:12.258Z,11.06
2022-11-05T14:29:39.594Z,11.03
2022-11-05T14:32:23.628Z,11.04
2022-11-05T14:34:54.600Z,11.03
2022-11-05T14:37:26.643Z,11.03
2022-11-05T14:39:54.048Z,11.02
2022-11-05T14:42:23.510Z,11.01
2022-11-05T14:45:01.320Z,11.00
2022-11-05T14:47:29.174Z,10.99
2022-11-05T14:49:59.268Z,10.93
2022-11-05T14:52:27.284Z,10.92
2022-11-05T14:54:54.922Z,10.90
2022-11-05T14:57:36.114Z,10.86
2022-11-05T15:00:03.034Z,10.83
2022-11-05T15:02:34.554Z,10.80
2022-11-05T15:05:19.521Z,10.81
2022-11-05T15:07:55.781Z,10.76
2022-11-05T15:10:26.282Z,10.76
2022-11-05T15:12:55.189Z,10.74
2022-11-05T15:15:22.607Z,10.74
2022-11-05T15:17:55.530Z,10.72
2022-11-05T15:20:23.562Z,10.69
2022-11-05T15:22:53.272Z,10.69
2022-11-05T15:25:23.219Z,10.68
2022-11-05T15:27:54.471Z,10.68
2022-11-05T15:30:21.899Z,10.66
2022-11-05T15:32:48.261Z,10.63
2022-11-05T15:35:18.751Z,10.62
2022-11-05T15:37:54.673Z,10.64
2022-11-05T15:40:25.666Z,10.59
2022-11-05T15:43:06.886Z,10.61
2022-11-05T15:45:33.322Z,10.56
2022-11-05T15:47:59.603Z,10.51
2022-11-05T15:50:25.979Z,10.46
2022-11-05T15:52:53.134Z,10.43
2022-11-05T15:55:20.553Z,10.38
2022-11-05T15:57:51.034Z,10.33
2022-11-05T16:00:18.671Z,10.28
2022-11-05T16:02:50.680Z,10.26
2022-11-05T16:05:17.241Z,10.23
2022-11-05T16:07:44.329Z,10.18
2022-11-05T16:10:17.536Z,10.19
2022-11-05T16:12:43.821Z,10.17
2022-11-05T16:15:22.473Z,10.15
2022-11-05T16:17:50.433Z,10.12
2022-11-05T16:20:21.253Z,10.10
2022-11-05T16:22:48.429Z,10.08
2022-11-05T16:25:26.891Z,10.06
2022-11-05T16:27:53.198Z,10.04
2022-11-05T16:30:21.005Z,10.04
2022-11-05T16:32:49.526Z,10.01
2022-11-05T16:35:17.727Z,10.03
2022-11-05T16:37:49.198Z,10.02
2022-11-05T16:40:19.053Z,10.02
2022-11-05T16:42:45.540Z,10.03
2022-11-05T16:45:12.840Z,10.03
2022-11-05T16:47:40.602Z,10.04
2022-11-05T16:50:13.297Z,10.04
2022-11-05T16:52:39.583Z,10.04
2022-11-05T16:55:06.046Z,10.03
2022-11-05T16:57:32.530Z,10.03
2022-11-05T16:59:59.705Z,10.03
2022-11-05T17:02:26.253Z,10.06
2022-11-05T17:04:54.038Z,10.07
2022-11-05T17:07:20.612Z,10.06
2022-11-05T17:09:46.996Z,10.08
2022-11-05T17:12:13.815Z,10.11
2022-11-05T17:14:40.082Z,10.11
2022-11-05T17:17:06.424Z,10.15
2022-11-05T17:19:32.842Z,10.14
2022-11-05T17:22:00.503Z,10.14
2022-11-05T17:24:26.797Z,10.16
2022-11-05T17:26:53.090Z,10.16
2022-11-05T17:29:19.416Z,10.15
2022-11-05T17:31:45.750Z,10.15
2022-11-05T17:34:12.043Z,10.16
2022-11-05T17:36:38.412Z,10.16
2022-11-05T17:39:06.089Z,10.16
2022-11-05T17:41:32.430Z,10.20
2022-11-05T17:43:58.770Z,10.20
2022-11-05T17:46:25.065Z,10.20
2022-11-05T17:48:51.471Z,10.18
2022-11-05T17:51:18.664Z,10.17
2022-11-05T17:53:44.996Z,10.16
2022-11-05T17:56:15.884Z,10.20
2022-11-05T17:58:44.753Z,10.16
2022-11-05T18:01:24.128Z,10.18
2022-11-05T18:03:50.502Z,10.15
2022-11-05T18:06:16.787Z,10.17
2022-11-05T18:08:43.718Z,10.21
2022-11-05T18:11:09.998Z,10.18
2022-11-05T18:13:37.916Z,10.15
2022-11-05T18:16:04.498Z,10.14
2022-11-05T18:18:30.850Z,10.14
2022-11-05T18:20:57.549Z,10.15
2022-11-05T18:23:23.914Z,10.11
2022-11-05T18:25:50.267Z,10.13
2022-11-05T18:28:16.589Z,10.09
2022-11-05T18:30:44.360Z,10.11
2022-11-05T18:33:10.987Z,10.10
2022-11-05T18:35:40.269Z,10.04
2022-11-05T18:38:06.560Z,9.97
2022-11-05T18:40:32.873Z,9.98
2022-11-05T18:42:59.241Z,9.94
2022-11-05T18:45:29.590Z,9.95
2022-11-05T18:47:58.698Z,9.91
2022-11-05T18:50:24.979Z,9.90
2022-11-05T18:52:51.296Z,9.86
2022-11-05T18:55:17.778Z,9.82
2022-11-05T18:57:44.097Z,9.79
2022-11-05T19:00:11.120Z,9.79
2022-11-05T19:02:37.587Z,9.75
2022-11-05T19:07:52.046Z,9.74
2022-11-05T19:10:18.375Z,9.73
2022-11-05T19:12:44.695Z,9.77
2022-11-05T19:15:11.135Z,9.74
2022-11-05T19:17:37.434Z,9.74
2022-11-05T19:20:06.278Z,9.77
2022-11-05T19:22:32.625Z,9.74
2022-11-05T19:24:58.989Z,9.76
2022-11-05T19:27:25.335Z,9.76
2022-11-05T19:29:51.661Z,9.73
2022-11-05T19:32:17.948Z,9.71
2022-11-05T19:34:47.565Z,9.74
2022-11-05T19:37:15.469Z,9.68
2022-11-05T19:39:41.776Z,9.67
2022-11-05T19:42:08.083Z,9.68
2022-11-05T19:44:35.642Z,9.72
2022-11-05T19:47:01.991Z,9.70
2022-11-05T19:49:28.314Z,9.67
2022-11-05T19:51:54.650Z,9.68
2022-11-05T19:54:22.418Z,9.70
2022-11-05T19:56:51.828Z,9.67
2022-11-05T19:59:18.257Z,9.64
2022-11-05T20:01:44.638Z,9.64
2022-11-05T20:04:11.046Z,9.63
2022-11-05T20:06:37.694Z,9.62
2022-11-05T20:09:23.007Z,9.59
2022-11-05T20:11:51.620Z,9.57
2022-11-05T20:14:19.109Z,9.55
2022-11-05T20:16:45.646Z,9.49
2022-11-05T20:19:13.293Z,9.49
2022-11-05T20:21:39.658Z,9.47
2022-11-05T20:24:06.138Z,9.46
2022-11-05T20:26:32.772Z,9.48
2022-11-05T20:29:00.686Z,9.46
2022-11-05T20:31:26.997Z,9.42
2022-11-05T20:33:53.270Z,9.46
2022-11-05T20:36:20.643Z,9.44
2022-11-05T20:38:47.798Z,9.47
2022-11-05T20:41:14.203Z,9.44
2022-11-05T20:43:40.897Z,9.48
2022-11-05T20:46:09.274Z,9.52
2022-11-05T20:48:35.764Z,9.51
2022-11-05T20:51:04.630Z,9.52
2022-11-05T20:53:31.035Z,9.56
2022-11-05T20:55:57.301Z,9.52
2022-11-05T20:58:23.574Z,9.53
2022-11-05T21:00:51.768Z,9.53
2022-11-05T21:03:19.406Z,9.57
2022-11-05T21:05:46.406Z,9.57
2022-11-05T21:08:12.939Z,9.57
2022-11-05T21:10:39.515Z,9.57
2022-11-05T21:13:05.828Z,9.55
2022-11-05T21:15:32.149Z,9.56
2022-11-05T21:17:59.190Z,9.55
2022-11-05T21:20:26.848Z,9.53
2022-11-05T21:22:53.140Z,9.56
2022-11-05T21:25:19.472Z,9.54
2022-11-05T21:27:45.750Z,9.59
2022-11-05T21:30:12.393Z,9.59
2022-11-05T21:32:38.688Z,9.56
2022-11-05T21:35:05.405Z,9.53
2022-11-05T21:37:33.118Z,9.59
2022-11-05T21:39:59.384Z,9.55
2022-11-05T21:42:25.688Z,9.60
2022-11-05T21:44:56.316Z,9.57
2022-11-05T21:47:27.036Z,9.48
2022-11-05T21:49:53.306Z,9.48
2022-11-05T21:52:19.583Z,9.44
2022-11-05T21:54:47.601Z,9.42
2022-11-05T21:57:15.486Z,9.40
2022-11-05T21:59:41.893Z,9.39
2022-11-05T22:02:09.123Z,9.42
2022-11-05T22:04:36.876Z,9.45
2022-11-05T22:07:03.191Z,9.43
2022-11-05T22:09:29.517Z,9.37
2022-11-05T22:11:57.318Z,9.34
2022-11-05T22:14:23.634Z,9.33
2022-11-05T22:16:50.061Z,9.29
2022-11-05T22:19:16.351Z,9.27
2022-11-05T22:21:42.640Z,9.26
2022-11-05T22:24:09.578Z,9.23
2022-11-05T22:26:36.323Z,9.20
2022-11-05T22:29:04.101Z,9.17
2022-11-05T22:31:36.014Z,9.16
2022-11-05T22:34:02.916Z,9.16
2022-11-05T22:36:29.199Z,9.12
2022-11-05T22:38:55.525Z,9.10
2022-11-05T22:41:21.997Z,9.11
2022-11-05T22:43:48.860Z,9.10
2022-11-05T22:46:17.931Z,9.16
2022-11-05T22:48:44.358Z,9.15
2022-11-05T22:51:12.002Z,9.16
2022-11-05T22:53:38.667Z,9.18
2022-11-05T22:56:06.129Z,9.20
2022-11-05T22:58:32.759Z,9.22
2022-11-05T23:00:59.299Z,9.21
2022-11-05T23:03:27.491Z,9.21
2022-11-05T23:05:57.037Z,9.25
2022-11-05T23:08:23.417Z,9.24
2022-11-05T23:10:49.703Z,9.22
2022-11-05T23:13:16.009Z,9.24
2022-11-05T23:15:42.306Z,9.25
2022-11-05T23:18:08.864Z,9.20
2022-11-05T23:20:36.496Z,9.21
2022-11-05T23:23:02.797Z,9.16
2022-11-05T23:25:29.086Z,9.18
2022-11-05T23:27:55.537Z,9.12
2022-11-05T23:30:22.863Z,9.08
2022-11-05T23:32:49.570Z,9.07
2022-11-05T23:35:16.086Z,9.08
2022-11-05T23:37:43.835Z,9.06
2022-11-05T23:40:12.219Z,9.02
2022-11-05T23:42:38.492Z,9.00
2022-11-05T23:45:06.358Z,9.02
2022-11-05T23:47:34.560Z,8.99
2022-11-05T23:50:00.888Z,9.00
2022-11-05T23:52:27.170Z,8.99
2022-11-05T23:54:54.789Z,9.00
2022-11-05T23:57:21.068Z,8.98
2022-11-05T23:59:47.334Z,8.96
